Time;durP1;ratioP1;P1;durP2;ratioP2;P2;SDS_P1;SDS_P2;PMS_P1;PMS_P2;Temp;Humidity;BMP_temperature;BMP_pressure;BME280_temperature;BME280_humidity;BME280_pressure;Samples;Min_cycle;Max_cycle;Signal;HPM_P1;HPM_P2
2023/01/08 00:01:05;;;;;;;2.95;1.38;;;;;;;17.57;30.66;101183.66;6158684;23;20015;-87
2023/01/08 00:03:31;;;;;;;2.00;1.50;;;;;;;17.53;30.52;101183.25;6159741;23;20012;-87
2023/01/08 00:06:06;;;;;;;2.92;1.83;;;;;;;17.39;30.60;101177.09;6158858;23;20008;-87
2023/01/08 00:08:32;;;;;;;2.70;1.70;;;;;;;17.43;30.52;101172.91;6184957;23;20369;-87
2023/01/08 00:10:57;;;;;;;3.38;1.98;;;;;;;17.53;30.39;101168.94;6158043;23;20164;-87
2023/01/08 00:13:23;;;;;;;1.85;1.50;;;;;;;17.48;30.76;101164.16;6158694;23;20000;-87
2023/01/08 00:15:49;;;;;;;2.30;1.48;;;;;;;17.49;30.71;101159.56;6159797;23;20008;-87
2023/01/08 00:18:14;;;;;;;2.35;1.73;;;;;;;17.49;30.56;101155.03;6159214;23;20013;-87
2023/01/08 00:20:41;;;;;;;2.28;1.75;;;;;;;17.51;30.54;101157.50;6184256;23;20067;-87
2023/01/08 00:23:12;;;;;;;2.85;1.60;;;;;;;17.48;30.43;101158.75;6158663;23;20015;-87
2023/01/08 00:25:38;;;;;;;2.38;1.58;;;;;;;17.48;30.46;101168.75;6159871;23;19997;-87
2023/01/08 00:28:04;;;;;;;2.72;1.80;;;;;;;17.49;30.48;101168.53;6184179;23;20008;-87
2023/01/08 00:30:29;;;;;;;2.83;1.50;;;;;;;17.45;30.56;101151.94;6159393;23;20001;-87
2023/01/08 00:32:55;;;;;;;2.25;1.60;;;;;;;17.52;30.47;101159.16;6158638;23;20095;-87
2023/01/08 00:35:21;;;;;;;2.63;1.60;;;;;;;17.42;30.53;101141.53;6158988;23;20313;-87
2023/01/08 00:37:50;;;;;;;2.50;1.60;;;;;;;17.37;30.61;101145.94;6158661;23;20001;-87
2023/01/08 00:40:15;;;;;;;2.00;1.50;;;;;;;17.48;30.38;101163.34;6159383;23;20005;-87
2023/01/08 00:42:41;;;;;;;2.10;1.55;;;;;;;17.54;30.55;101165.16;6159230;23;20015;-87
2023/01/08 00:45:07;;;;;;;2.15;1.63;;;;;;;17.43;30.62;101148.59;6158920;23;20084;-87
2023/01/08 00:47:33;;;;;;;2.25;1.75;;;;;;;17.48;30.64;101163.34;6158504;23;20434;-86
2023/01/08 00:49:58;;;;;;;1.88;1.42;;;;;;;17.49;30.32;101148.78;6159139;23;20032;-87
2023/01/08 00:52:24;;;;;;;2.30;1.60;;;;;;;17.45;30.47;101149.22;6183734;23;20012;-87
2023/01/08 00:54:50;;;;;;;2.38;1.40;;;;;;;17.40;30.25;101146.34;6158987;23;20005;-87
2023/01/08 00:57:16;;;;;;;2.47;1.60;;;;;;;17.45;30.59;101156.47;6159237;23;20008;-87
2023/01/08 00:59:41;;;;;;;2.03;1.50;;;;;;;17.44;30.35;101158.34;6158992;23;20008;-87
2023/01/08 01:02:07;;;;;;;2.00;1.35;;;;;;;17.40;30.67;101151.75;6184248;23;20334;-87
2023/01/08 01:04:33;;;;;;;2.38;1.67;;;;;;;17.43;30.34;101166.69;6159353;23;20013;-87
2023/01/08 01:06:59;;;;;;;1.98;1.23;;;;;;;17.40;30.64;101162.56;6158360;23;20012;-87
2023/01/08 01:09:24;;;;;;;1.52;1.40;;;;;;;17.46;30.52;101166.25;6158746;23;20011;-87
2023/01/08 01:11:50;;;;;;;2.20;1.77;;;;;;;17.44;30.67;101163.75;6159902;23;20012;-87
2023/01/08 01:14:16;;;;;;;1.60;1.50;;;;;;;17.39;30.57;101181.66;6159615;23;20055;-87
2023/01/08 01:16:42;;;;;;;2.83;1.40;;;;;;;17.39;30.82;101174.38;6159896;23;20012;-87
2023/01/08 01:19:08;;;;;;;1.80;1.50;;;;;;;17.43;30.70;101167.50;6159469;23;20493;-87
2023/01/08 01:21:34;;;;;;;1.85;1.52;;;;;;;17.44;30.37;101163.75;6158984;23;20091;-87
2023/01/08 01:24:02;;;;;;;2.17;1.52;;;;;;;17.34;30.13;101157.16;6185772;23;20080;-87
2023/01/08 01:26:28;;;;;;;2.67;1.40;;;;;;;17.33;30.16;101150.91;6162263;23;20438;-87
2023/01/08 01:28:54;;;;;;;3.13;1.63;;;;;;;17.37;30.54;101154.88;6160978;23;20011;-87
2023/01/08 01:31:20;;;;;;;2.22;1.73;;;;;;;17.36;30.63;101155.91;6161530;23;20001;-87
2023/01/08 01:33:46;;;;;;;2.05;1.70;;;;;;;17.42;30.24;101159.63;6161056;23;20452;-87
2023/01/08 01:36:12;;;;;;;2.60;1.58;;;;;;;17.34;30.39;101141.78;6160593;23;20275;-87
2023/01/08 01:38:38;;;;;;;1.98;1.50;;;;;;;17.30;30.61;101124.34;6160894;23;20012;-87
2023/01/08 01:41:04;;;;;;;1.85;1.50;;;;;;;17.34;30.47;101139.06;6185029;23;20442;-87
2023/01/08 01:43:33;;;;;;;2.42;1.80;;;;;;;17.32;30.63;101124.94;6161192;23;20015;-87
2023/01/08 01:45:59;;;;;;;1.75;1.35;;;;;;;17.33;30.57;101118.50;6186026;23;20087;-87
2023/01/08 01:48:25;;;;;;;2.05;1.50;;;;;;;17.28;30.55;101104.78;6160891;23;20512;-87
2023/01/08 01:50:51;;;;;;;2.33;1.60;;;;;;;17.37;30.70;101100.81;6160181;23;20095;-87
2023/01/08 01:53:18;;;;;;;2.28;1.50;;;;;;;17.39;30.63;101101.44;6185818;23;20001;-87
2023/01/08 01:55:44;;;;;;;2.22;1.60;;;;;;;17.34;30.54;101086.91;6161438;23;20095;-87
2023/01/08 01:58:12;;;;;;;2.15;1.75;;;;;;;17.30;30.46;101070.31;6160956;23;20390;-87
2023/01/08 02:00:38;;;;;;;2.80;1.80;;;;;;;17.35;30.39;101080.47;6160722;23;20012;-87
2023/01/08 02:03:05;;;;;;;2.22;1.52;;;;;;;17.37;30.54;101081.91;6159671;23;20473;-87
2023/01/08 02:05:54;;;;;;;2.25;1.60;;;;;;;17.36;30.59;101080.25;6210388;23;20001;-87
2023/01/08 02:08:41;;;;;;;1.73;1.48;;;;;;;17.31;30.56;101080.06;6162681;23;20012;-87
2023/01/08 02:11:11;;;;;;;2.25;1.70;;;;;;;17.27;30.63;101081.53;6188332;23;20004;-87
2023/01/08 02:13:38;;;;;;;2.10;1.52;;;;;;;17.35;30.29;101086.72;6185076;23;20253;-87
2023/01/08 02:16:15;;;;;;;2.13;1.55;;;;;;;17.39;30.48;101087.09;6160193;23;20350;-87
2023/01/08 02:18:49;;;;;;;2.30;1.60;;;;;;;17.32;30.57;101076.31;6210259;23;20084;-87
2023/01/08 02:21:27;;;;;;;2.13;1.63;;;;;;;17.35;30.48;101092.13;6160863;23;20009;-87
2023/01/08 02:24:07;;;;;;;2.20;1.30;;;;;;;17.35;30.24;101080.47;6211740;23;20371;-87
2023/01/08 02:26:33;;;;;;;2.28;1.50;;;;;;;17.28;30.35;101077.78;6187110;23;20148;-87
2023/01/08 02:29:11;;;;;;;1.75;1.40;;;;;;;17.26;30.66;101079.88;6160230;23;20012;-87
2023/01/08 02:31:38;;;;;;;2.00;1.60;;;;;;;17.23;30.89;101080.31;6186026;23;20323;-87
2023/01/08 02:34:04;;;;;;;1.45;1.33;;;;;;;17.27;30.66;101074.25;6160411;23;20015;-87
2023/01/08 02:36:42;;;;;;;2.88;1.85;;;;;;;17.34;30.41;101090.44;6159979;23;20009;-87
2023/01/08 02:39:32;;;;;;;1.67;1.30;;;;;;;17.33;30.50;101080.66;6211225;23;20012;-87
2023/01/08 02:42:03;;;;;;;1.83;1.40;;;;;;;17.35;30.61;101086.72;6210203;23;20012;-87
2023/01/08 02:44:47;;;;;;;2.22;1.70;;;;;;;17.27;30.53;101062.63;6211970;23;20445;-87
2023/01/08 02:47:49;;;;;;;2.65;1.70;;;;;;;17.34;30.54;101076.13;6210416;23;20028;-87
2023/01/08 02:50:37;;;;;;;3.35;1.80;;;;;;;17.29;30.72;101068.66;6177474;23;20008;-87
2023/01/08 02:53:23;;;;;;;1.50;1.20;;;;;;;17.29;30.65;101062.44;6163166;23;20059;-87
2023/01/08 02:55:51;;;;;;;2.35;1.58;;;;;;;17.23;30.76;101053.28;6209045;23;20080;-87
2023/01/08 02:58:17;;;;;;;2.88;1.50;;;;;;;17.26;30.51;101052.88;6160878;23;20028;-87
2023/01/08 03:00:43;;;;;;;2.47;1.58;;;;;;;17.26;30.67;101047.47;6185132;23;20303;-87
2023/01/08 03:03:14;;;;;;;2.45;1.35;;;;;;;17.31;30.43;101058.44;6185460;23;20009;-87
2023/01/08 03:05:40;;;;;;;1.90;1.42;;;;;;;17.27;30.35;101044.53;6161795;23;20012;-87
2023/01/08 03:08:06;;;;;;;1.98;1.50;;;;;;;17.26;30.71;101047.47;6186046;23;20633;-87
2023/01/08 03:10:32;;;;;;;2.80;1.90;;;;;;;17.24;30.65;101057.66;6160763;23;20088;-87
2023/01/08 03:13:03;;;;;;;1.77;1.38;;;;;;;17.21;30.56;101044.56;6159998;23;20445;-87
2023/01/08 03:15:37;;;;;;;2.03;1.40;;;;;;;17.16;30.57;101041.69;6186050;23;20450;-87
2023/01/08 03:18:06;;;;;;;1.95;1.60;;;;;;;17.20;30.56;101053.75;6186862;23;20009;-87
2023/01/08 03:20:32;;;;;;;1.80;1.42;;;;;;;17.17;30.23;101054.16;6161701;23;20023;-87
2023/01/08 03:22:57;;;;;;;2.72;1.55;;;;;;;17.24;30.65;101066.59;6160565;23;20338;-87
2023/01/08 03:25:24;;;;;;;1.98;1.60;;;;;;;17.18;30.83;101045.84;6185841;23;20004;-86
2023/01/08 03:27:53;;;;;;;2.45;1.50;;;;;;;17.21;30.56;101052.69;6160812;23;20350;-87
2023/01/08 03:30:19;;;;;;;2.22;1.60;;;;;;;17.22;30.56;101065.16;6160118;23;20035;-87
2023/01/08 03:32:51;;;;;;;2.08;1.50;;;;;;;17.11;30.63;101058.56;6159861;23;20425;-87
2023/01/08 03:35:18;;;;;;;1.75;1.30;;;;;;;17.16;30.08;101057.91;6160717;23;20005;-87
2023/01/08 03:37:46;;;;;;;2.40;1.58;;;;;;;17.15;30.38;101061.66;6160301;23;20004;-87
2023/01/08 03:40:34;;;;;;;2.58;1.70;;;;;;;17.18;30.65;101066.63;6184996;23;20029;-87
2023/01/08 03:42:59;;;;;;;2.15;1.35;;;;;;;17.19;30.64;101061.00;6159952;23;20009;-87
2023/01/08 03:45:25;;;;;;;1.92;1.60;;;;;;;17.16;30.71;101039.00;6184095;23;20008;-87
2023/01/08 03:47:51;;;;;;;2.63;1.50;;;;;;;17.21;30.69;101044.56;6159920;23;20012;-87
2023/01/08 03:50:19;;;;;;;2.60;1.65;;;;;;;17.08;30.72;101016.59;6159750;23;20430;-87
2023/01/08 03:52:48;;;;;;;1.58;1.45;;;;;;;17.15;30.62;101023.84;6160105;23;20009;-87
2023/01/08 03:55:14;;;;;;;1.80;1.20;;;;;;;17.13;30.20;101025.94;6159434;23;20004;-87
2023/01/08 03:57:39;;;;;;;2.90;1.70;;;;;;;17.16;30.51;101026.34;6159159;23;20080;-87
2023/01/08 04:00:08;;;;;;;2.03;1.17;;;;;;;17.21;30.52;101023.81;6184414;23;20007;-87
2023/01/08 04:02:33;;;;;;;2.45;1.40;;;;;;;17.15;30.50;101008.47;6183887;23;20001;-88
2023/01/08 04:04:59;;;;;;;1.85;1.48;;;;;;;17.17;30.55;101013.66;6159218;23;20096;-87
2023/01/08 04:07:25;;;;;;;1.70;1.50;;;;;;;17.17;30.67;101009.06;6159907;23;20084;-87
2023/01/08 04:09:50;;;;;;;2.38;1.65;;;;;;;17.11;30.55;100990.19;6184337;23;20008;-87
2023/01/08 04:12:16;;;;;;;2.05;1.45;;;;;;;16.96;30.75;100967.03;6184352;23;20385;-87
2023/01/08 04:14:42;;;;;;;1.98;1.30;;;;;;;17.16;30.56;101001.19;6209212;23;20088;-87
2023/01/08 04:17:10;;;;;;;1.88;1.40;;;;;;;17.20;30.55;100994.31;6158839;23;20479;-87
2023/01/08 04:19:36;;;;;;;3.40;1.70;;;;;;;17.07;30.77;100984.41;6209045;23;20453;-87
2023/01/08 04:22:02;;;;;;;2.03;1.45;;;;;;;17.17;30.19;100994.75;6183677;23;20076;-87
2023/01/08 04:24:27;;;;;;;2.50;1.45;;;;;;;17.16;30.49;100993.06;6183343;23;20402;-87
2023/01/08 04:26:53;;;;;;;1.55;1.30;;;;;;;17.10;30.48;100999.34;6158530;23;20026;-87
2023/01/08 04:29:19;;;;;;;1.75;1.33;;;;;;;17.11;30.78;100995.59;6159578;23;20312;-87
2023/01/08 04:31:44;;;;;;;2.00;1.42;;;;;;;17.17;30.61;100995.56;6183882;23;20008;-87
2023/01/08 04:34:10;;;;;;;2.17;1.40;;;;;;;17.03;30.62;100972.38;6159136;23;20178;-87
2023/01/08 04:36:36;;;;;;;2.35;1.40;;;;;;;17.07;30.86;100987.97;6183865;23;20005;-87
2023/01/08 04:39:02;;;;;;;1.98;1.50;;;;;;;17.12;31.06;100987.28;6183638;23;20072;-87
2023/01/08 04:41:30;;;;;;;2.13;1.40;;;;;;;17.06;30.33;100977.38;6159202;23;20012;-87
2023/01/08 04:43:56;;;;;;;2.45;1.42;;;;;;;17.19;30.48;101006.16;6184320;23;20001;-87
2023/01/08 04:46:22;;;;;;;1.90;1.40;;;;;;;17.11;30.62;100979.41;6159162;23;20096;-87
2023/01/08 04:48:47;;;;;;;1.55;1.35;;;;;;;17.15;30.70;100986.84;6208937;23;20004;-87
2023/01/08 04:51:13;;;;;;;3.38;1.40;;;;;;;17.15;30.90;100997.66;6183610;23;20007;-87
2023/01/08 04:53:40;;;;;;;1.83;1.35;;;;;;;17.02;30.54;100965.31;6159242;23;20059;-87
2023/01/08 04:56:09;;;;;;;2.30;1.48;;;;;;;17.12;30.62;100983.75;6159818;23;20373;-87
2023/01/08 04:58:35;;;;;;;2.05;1.30;;;;;;;17.13;30.73;100971.94;6159242;23;20326;-87
2023/01/08 05:01:07;;;;;;;1.60;1.30;;;;;;;17.07;30.75;100965.50;6184716;23;20080;-87
2023/01/08 05:03:33;;;;;;;1.85;1.27;;;;;;;17.10;30.73;100961.56;6160796;23;20004;-87
2023/01/08 05:05:59;;;;;;;2.20;1.52;;;;;;;17.07;30.80;100949.28;6183867;23;20015;-87
2023/01/08 05:08:25;;;;;;;1.83;1.50;;;;;;;17.13;30.81;100953.84;6159154;23;20032;-87
2023/01/08 05:10:51;;;;;;;3.30;1.27;;;;;;;17.07;30.79;100944.75;6159080;23;20446;-87
2023/01/08 05:13:16;;;;;;;2.13;1.50;;;;;;;16.97;30.83;100922.78;6159637;23;20517;-87
2023/01/08 05:15:42;;;;;;;3.45;1.50;;;;;;;17.06;30.84;100945.78;6159190;23;20011;-87
2023/01/08 05:18:08;;;;;;;1.60;1.30;;;;;;;17.06;30.88;100937.69;6159208;23;20016;-87
2023/01/08 05:20:34;;;;;;;2.65;1.45;;;;;;;17.08;30.79;100938.28;6158767;23;20001;-87
2023/01/08 05:23:00;;;;;;;1.52;1.27;;;;;;;17.14;30.70;100941.16;6158116;23;20511;-87
2023/01/08 05:25:26;;;;;;;2.67;1.58;;;;;;;17.12;30.59;100943.25;6184001;23;20001;-87
2023/01/08 05:27:52;;;;;;;1.63;1.42;;;;;;;17.08;30.53;100937.47;6158952;23;20036;-87
2023/01/08 05:30:17;;;;;;;2.88;1.70;;;;;;;17.11;30.48;100947.00;6159324;23;20019;-87
2023/01/08 05:32:45;;;;;;;1.88;1.52;;;;;;;17.11;30.51;100950.53;6159003;23;20522;-87
2023/01/08 05:35:10;;;;;;;2.22;1.55;;;;;;;17.00;30.47;100922.34;6184474;23;20061;-87
2023/01/08 05:37:36;;;;;;;2.13;1.30;;;;;;;17.08;30.67;100943.69;6183313;23;20004;-87
2023/01/08 05:40:02;;;;;;;1.80;1.30;;;;;;;17.12;30.67;100945.97;6159562;23;20076;-87
2023/01/08 05:42:28;;;;;;;1.45;1.20;;;;;;;17.10;30.88;100939.94;6183972;23;20004;-87
2023/01/08 05:44:54;;;;;;;2.97;1.23;;;;;;;17.10;30.48;100929.97;6183678;23;20001;-87
2023/01/08 05:47:19;;;;;;;1.50;1.10;;;;;;;17.08;30.76;100935.59;6159142;23;20075;-87
2023/01/08 05:49:45;;;;;;;2.28;1.50;;;;;;;17.07;30.43;100931.25;6183692;23;20084;-87
2023/01/08 05:52:11;;;;;;;2.15;1.55;;;;;;;17.08;30.53;100938.28;6158772;23;20082;-87
2023/01/08 05:54:36;;;;;;;2.17;1.42;;;;;;;17.10;30.75;100929.16;6158825;23;20368;-87
2023/01/08 05:57:02;;;;;;;1.70;1.40;;;;;;;17.12;30.74;100929.75;6183195;23;20005;-87
2023/01/08 05:59:28;;;;;;;2.38;1.60;;;;;;;16.98;30.54;100916.31;6158851;23;20083;-87
2023/01/08 06:01:53;;;;;;;1.83;1.30;;;;;;;17.04;30.73;100920.88;6159033;23;20020;-87
2023/01/08 06:04:19;;;;;;;1.92;1.25;;;;;;;17.00;30.75;100921.50;6158645;23;20032;-87
2023/01/08 06:06:45;;;;;;;2.80;1.65;;;;;;;17.04;30.81;100926.28;6183856;23;20050;-87
2023/01/08 06:09:11;;;;;;;1.73;1.30;;;;;;;17.12;30.88;100929.75;6184123;23;20087;-87
2023/01/08 06:11:37;;;;;;;1.85;1.42;;;;;;;17.11;30.81;100941.59;6185435;23;20445;-87
2023/01/08 06:14:02;;;;;;;1.77;1.52;;;;;;;17.01;30.92;100926.69;6160830;23;20418;-87
2023/01/08 06:16:28;;;;;;;2.58;1.35;;;;;;;17.07;30.74;100933.09;6160634;23;20265;-87
2023/01/08 06:18:54;;;;;;;1.67;1.40;;;;;;;16.97;30.69;100920.09;6159519;23;20021;-87
2023/01/08 06:21:20;;;;;;;1.42;1.17;;;;;;;17.03;30.76;100929.19;6160877;23;20094;-87
2023/01/08 06:23:45;;;;;;;2.00;1.50;;;;;;;17.02;30.67;100917.56;6160712;23;20096;-87
2023/01/08 06:26:11;;;;;;;2.42;1.50;;;;;;;17.02;30.50;100911.31;6185707;23;20057;-87
2023/01/08 06:28:36;;;;;;;1.65;1.23;;;;;;;17.07;30.79;100919.59;6160530;23;20066;-87
2023/01/08 06:31:02;;;;;;;1.77;1.33;;;;;;;17.10;30.80;100926.44;6184728;23;20008;-87
2023/01/08 06:33:28;;;;;;;3.00;1.48;;;;;;;17.07;30.87;100947.44;6184621;23;20008;-87
2023/01/08 06:35:54;;;;;;;2.10;1.60;;;;;;;17.04;30.60;100931.66;6160066;23;20039;-87
2023/01/08 06:38:20;;;;;;;2.15;1.40;;;;;;;17.02;30.86;100925.66;6184947;23;20091;-87
2023/01/08 06:40:48;;;;;;;1.80;1.27;;;;;;;16.91;30.94;100912.84;6184831;23;20496;-87
2023/01/08 06:43:14;;;;;;;1.73;1.35;;;;;;;17.02;30.76;100914.88;6210120;23;20004;-87
2023/01/08 06:45:40;;;;;;;1.88;1.25;;;;;;;17.01;30.70;100915.09;6160369;23;20005;-87
2023/01/08 06:48:06;;;;;;;2.00;1.50;;;;;;;17.06;30.83;100921.47;6158676;23;20087;-87
2023/01/08 06:50:32;;;;;;;2.92;1.60;;;;;;;17.02;30.55;100917.56;6160255;23;20490;-87
2023/01/08 06:52:58;;;;;;;2.38;1.52;;;;;;;17.03;30.59;100924.59;6184780;23;20005;-87
2023/01/08 06:55:24;;;;;;;2.22;1.50;;;;;;;17.06;30.77;100929.56;6160839;23;20067;-87
2023/01/08 06:57:56;;;;;;;2.67;1.58;;;;;;;17.06;30.92;100929.56;6160082;23;20016;-87
2023/01/08 07:00:22;;;;;;;2.45;1.50;;;;;;;17.03;30.74;100918.38;6159714;23;20347;-87
2023/01/08 07:02:49;;;;;;;2.05;1.38;;;;;;;17.11;30.68;100936.19;6184995;23;20016;-87
2023/01/08 07:05:15;;;;;;;2.10;1.50;;;;;;;17.03;30.58;100919.19;6185286;23;20004;-87
2023/01/08 07:07:41;;;;;;;1.60;1.33;;;;;;;17.02;30.81;100920.25;6160225;23;20008;-87
2023/01/08 07:10:07;;;;;;;1.80;1.38;;;;;;;17.03;30.75;100923.78;6209878;23;20024;-87
2023/01/08 07:12:32;;;;;;;2.45;1.55;;;;;;;17.02;30.89;100922.97;6159426;23;20001;-87
2023/01/08 07:14:58;;;;;;;2.17;1.48;;;;;;;17.04;30.83;100920.03;6159194;23;20142;-87
2023/01/08 07:17:24;;;;;;;1.50;1.40;;;;;;;17.01;30.74;100921.28;6185065;23;20060;-87
2023/01/08 07:19:49;;;;;;;1.73;1.30;;;;;;;17.02;30.68;100914.03;6184069;23;20091;-87
2023/01/08 07:22:15;;;;;;;2.15;1.52;;;;;;;17.02;30.92;100925.66;6184370;23;20012;-87
2023/01/08 07:24:41;;;;;;;2.13;1.30;;;;;;;17.00;30.94;100922.34;6184066;23;20032;-87
2023/01/08 07:27:06;;;;;;;2.08;1.40;;;;;;;17.01;30.91;100913.19;6159321;23;20136;-87
2023/01/08 07:29:32;;;;;;;2.25;1.40;;;;;;;16.96;30.81;100918.41;6159462;23;20005;-87
2023/01/08 07:32:01;;;;;;;1.83;1.27;;;;;;;16.97;30.65;100920.09;6184839;23;20381;-87
2023/01/08 07:34:27;;;;;;;2.30;1.40;;;;;;;17.02;30.94;100917.56;6184854;23;20059;-87
2023/01/08 07:36:52;;;;;;;2.65;1.70;;;;;;;17.02;30.72;100925.66;6184730;23;20005;-87
2023/01/08 07:39:18;;;;;;;1.77;1.50;;;;;;;16.98;30.78;100918.22;6184745;23;20004;-87
2023/01/08 07:41:44;;;;;;;2.45;1.70;;;;;;;16.98;31.03;100910.09;6159014;23;20140;-87
2023/01/08 07:44:10;;;;;;;1.98;1.52;;;;;;;17.01;30.67;100907.78;6159795;23;20012;-87
2023/01/08 07:46:36;;;;;;;1.95;1.50;;;;;;;16.93;30.73;100896.44;6184480;23;20516;-87
2023/01/08 07:49:02;;;;;;;1.85;1.50;;;;;;;16.94;30.97;100898.91;6158924;23;20004;-87
2023/01/08 07:51:28;;;;;;;1.92;1.40;;;;;;;16.89;30.93;100890.66;6184591;23;19996;-87
2023/01/08 07:53:55;;;;;;;2.05;1.60;;;;;;;16.88;30.88;100887.13;6160205;23;20004;-87
2023/01/08 07:56:21;;;;;;;1.58;1.30;;;;;;;17.04;30.91;100903.81;6184581;23;20456;-87
2023/01/08 07:58:47;;;;;;;2.45;1.80;;;;;;;16.95;30.90;100902.44;6184067;23;20005;-87
2023/01/08 08:01:25;;;;;;;2.63;1.30;;;;;;;16.92;30.97;100895.63;6159745;23;20012;-87
2023/01/08 08:03:51;;;;;;;1.40;1.30;;;;;;;16.99;30.70;100893.69;6159678;23;20438;-88
2023/01/08 08:06:16;;;;;;;1.70;1.45;;;;;;;16.93;30.74;100897.25;6184314;23;20012;-87
2023/01/08 08:08:42;;;;;;;1.88;1.48;;;;;;;16.91;30.87;100896.66;6159413;23;20333;-87
2023/01/08 08:11:08;;;;;;;1.80;1.50;;;;;;;16.89;30.73;100886.06;6159039;23;20004;-87
2023/01/08 08:13:34;;;;;;;3.05;1.60;;;;;;;17.00;30.89;100908.81;6159041;23;20375;-87
2023/01/08 08:16:03;;;;;;;2.35;1.65;;;;;;;16.87;30.96;100896.25;6159049;23;20405;-87
2023/01/08 08:18:29;;;;;;;1.65;1.40;;;;;;;17.01;30.89;100904.28;6159413;23;20044;-87
2023/01/08 08:20:54;;;;;;;1.38;1.23;;;;;;;16.97;30.79;100906.59;6159114;23;20022;-87
2023/01/08 08:23:20;;;;;;;2.38;1.40;;;;;;;16.98;30.98;100910.94;6159569;23;20012;-87
2023/01/08 08:25:46;;;;;;;2.38;1.60;;;;;;;16.99;30.72;100893.69;6159292;23;20083;-87
2023/01/08 08:28:11;;;;;;;2.00;1.42;;;;;;;17.03;30.86;100897.59;6159639;23;20087;-87
2023/01/08 08:30:37;;;;;;;1.50;1.35;;;;;;;16.93;31.00;100889.16;6183717;23;20023;-87
2023/01/08 08:33:04;;;;;;;2.40;1.70;;;;;;;16.91;30.87;100898.53;6183627;23;20063;-87
2023/01/08 08:35:30;;;;;;;1.42;1.33;;;;;;;16.97;30.93;100895.78;6184329;23;20003;-87
2023/01/08 08:37:56;;;;;;;1.85;1.50;;;;;;;16.99;30.90;100912.59;6159269;23;20005;-87
2023/01/08 08:40:22;;;;;;;2.00;1.52;;;;;;;16.98;30.56;100900.13;6183946;23;20397;-87
2023/01/08 08:42:47;;;;;;;1.60;1.50;;;;;;;16.96;30.79;100902.22;6158776;23;20154;-87
2023/01/08 08:45:13;;;;;;;1.65;1.30;;;;;;;17.00;30.83;100903.44;6159127;23;20005;-87
2023/01/08 08:47:39;;;;;;;1.85;1.48;;;;;;;16.95;30.77;100891.63;6184660;23;20008;-87
2023/01/08 08:50:08;;;;;;;3.95;1.60;;;;;;;16.99;30.91;100899.09;6159651;23;20007;-87
2023/01/08 08:52:36;;;;;;;3.05;2.00;;;;;;;17.01;30.91;100907.78;6159152;23;20433;-87
2023/01/08 08:55:02;;;;;;;2.03;1.48;;;;;;;16.98;31.08;100896.59;6159072;23;20079;-87
2023/01/08 08:57:27;;;;;;;2.10;1.45;;;;;;;16.95;31.00;100887.06;6184452;23;20001;-87
2023/01/08 08:59:53;;;;;;;2.53;1.67;;;;;;;17.04;30.98;100888.47;6159238;23;20013;-87
2023/01/08 09:02:19;;;;;;;2.45;1.70;;;;;;;16.87;30.88;100884.63;6159550;23;20280;-87
2023/01/08 09:04:48;;;;;;;1.77;1.48;;;;;;;16.88;30.91;100887.13;6159893;23;20012;-87
2023/01/08 09:07:13;;;;;;;2.00;1.52;;;;;;;16.80;31.47;100879.25;6159257;23;20323;-87
2023/01/08 09:09:39;;;;;;;1.90;1.70;;;;;;;16.93;31.05;100896.44;6183953;23;20012;-87
2023/01/08 09:12:06;;;;;;;2.17;1.33;;;;;;;16.94;31.12;100882.72;6159256;23;20433;-87
2023/01/08 09:14:31;;;;;;;2.60;1.65;;;;;;;16.98;31.01;100894.72;6159888;23;20448;-87
2023/01/08 09:16:57;;;;;;;2.42;1.65;;;;;;;16.96;30.85;100877.09;6184264;23;20142;-87
2023/01/08 09:19:23;;;;;;;2.38;1.70;;;;;;;16.89;30.90;100860.94;6184054;23;20021;-87
2023/01/08 09:21:49;;;;;;;2.00;1.40;;;;;;;16.98;30.70;100888.50;6160164;23;20100;-87
2023/01/08 09:24:15;;;;;;;2.40;1.50;;;;;;;17.00;30.87;100884.53;6160388;23;20453;-87
2023/01/08 09:26:41;;;;;;;2.25;1.60;;;;;;;17.00;30.74;100887.22;6184878;23;20027;-87
2023/01/08 09:29:07;;;;;;;2.42;1.58;;;;;;;16.90;30.73;100870.69;6180529;23;20001;-87
2023/01/08 09:31:37;;;;;;;1.80;1.40;;;;;;;16.91;31.17;100872.34;6152585;23;20068;-87
2023/01/08 09:34:09;;;;;;;2.13;1.50;;;;;;;16.99;31.12;100874.78;6159558;23;20220;-87
2023/01/08 09:36:36;;;;;;;2.33;1.63;;;;;;;17.01;31.09;100880.78;6159643;23;20456;-87
2023/01/08 09:39:03;;;;;;;1.77;1.48;;;;;;;16.90;31.03;100854.47;6183541;23;20010;-87
2023/01/08 09:41:35;;;;;;;2.47;1.60;;;;;;;16.99;30.96;100858.59;6159029;23;20021;-87
2023/01/08 09:44:06;;;;;;;2.78;1.67;;;;;;;16.89;30.91;100853.66;6159000;23;20015;-87
2023/01/08 09:46:33;;;;;;;1.58;1.40;;;;;;;16.96;30.94;100864.41;6160753;23;20015;-87
2023/01/08 09:49:03;;;;;;;2.30;1.60;;;;;;;16.97;30.94;100866.09;6184808;23;20016;-87
2023/01/08 09:51:37;;;;;;;2.08;1.35;;;;;;;16.88;31.06;100840.38;6160956;23;20012;-87
2023/01/08 09:54:06;;;;;;;3.10;1.90;;;;;;;16.96;30.99;100858.22;6159916;23;20032;-87
2023/01/08 09:56:34;;;;;;;3.05;1.65;;;;;;;17.00;31.04;100860.22;6161447;23;20158;-87
2023/01/08 09:59:02;;;;;;;2.75;1.70;;;;;;;16.92;31.09;100840.78;6157916;23;20021;-87
2023/01/08 10:01:44;;;;;;;2.08;1.42;;;;;;;16.77;31.06;100811.38;6156831;23;20104;-87
2023/01/08 10:04:14;;;;;;;2.95;1.88;;;;;;;17.02;31.00;100847.34;6162095;23;20345;-87
2023/01/08 10:06:40;;;;;;;1.60;1.48;;;;;;;16.91;31.34;100834.56;6211109;23;20012;-87
2023/01/08 10:09:12;;;;;;;2.90;1.77;;;;;;;16.93;31.17;100832.47;6159649;23;20753;-87
2023/01/08 10:11:40;;;;;;;1.70;1.55;;;;;;;16.98;30.95;100832.63;6160190;23;20009;-87
2023/01/08 10:14:39;;;;;;;;;;;;;;;;;;;;;
2023/01/08 10:17:28;;;;;;;2.13;1.48;;;;;;;17.05;31.03;100836.09;6208993;23;20486;-87
2023/01/08 10:19:54;;;;;;;1.70;1.40;;;;;;;17.04;30.92;100839.00;6175690;23;20127;-88
2023/01/08 10:22:22;;;;;;;1.92;1.50;;;;;;;16.92;31.18;100825.41;6159027;23;20092;-87
2023/01/08 10:24:49;;;;;;;1.90;1.50;;;;;;;16.91;31.06;100821.06;6155138;23;20494;-86
2023/01/08 10:27:21;;;;;;;2.47;1.50;;;;;;;16.98;31.17;100835.31;6159336;23;20059;-87
2023/01/08 10:29:53;;;;;;;2.40;1.80;;;;;;;16.94;31.15;100833.31;6184280;23;20378;-87
2023/01/08 10:32:29;;;;;;;1.92;1.40;;;;;;;17.01;31.19;100834.06;6185059;23;20008;-87
2023/01/08 10:34:55;;;;;;;1.95;1.55;;;;;;;16.84;30.99;100804.09;6208826;23;20000;-87
2023/01/08 10:37:27;;;;;;;1.77;1.27;;;;;;;16.80;31.15;100806.38;6184942;23;20029;-87
2023/01/08 10:39:59;;;;;;;1.85;1.60;;;;;;;16.76;30.90;100782.72;6160116;23;20379;-87
2023/01/08 10:42:32;;;;;;;2.10;1.23;;;;;;;16.75;31.06;100775.66;6161966;23;20012;-87
2023/01/08 10:44:59;;;;;;;2.13;1.40;;;;;;;17.01;31.02;100824.09;6161090;23;20311;-87
2023/01/08 10:47:27;;;;;;;2.25;1.60;;;;;;;17.00;31.17;100825.13;6185157;23;20001;-87
2023/01/08 10:49:53;;;;;;;3.03;1.60;;;;;;;16.94;31.50;100807.13;6159088;23;20035;-87
2023/01/08 10:52:39;;;;;;;1.92;1.50;;;;;;;17.02;31.19;100825.75;6159555;23;20019;-87
2023/01/08 10:55:31;;;;;;;2.20;1.45;;;;;;;17.04;31.29;100820.13;6182543;23;20014;-87
2023/01/08 10:58:01;;;;;;;1.88;1.60;;;;;;;16.94;31.04;100804.44;6184064;23;20012;-87
2023/01/08 11:00:31;;;;;;;1.90;1.50;;;;;;;17.03;31.07;100819.28;6158732;23;20341;-87
2023/01/08 11:03:07;;;;;;;1.42;1.25;;;;;;;16.95;31.32;100813.34;6158962;23;20012;-87
2023/01/08 11:05:35;;;;;;;2.17;1.50;;;;;;;17.02;31.12;100814.13;6182346;23;20001;-87
2023/01/08 11:08:02;;;;;;;1.98;1.55;;;;;;;17.02;31.33;100808.72;6184100;23;20028;-87
2023/01/08 11:10:28;;;;;;;1.70;1.38;;;;;;;17.07;31.12;100816.97;6160164;23;20020;-87
2023/01/08 11:12:58;;;;;;;1.90;1.40;;;;;;;17.04;31.05;100802.06;6159052;23;20112;-87
2023/01/08 11:15:30;;;;;;;1.55;1.45;;;;;;;17.10;31.03;100805.75;6160403;23;20012;-87
2023/01/08 11:18:04;;;;;;;2.53;1.70;;;;;;;17.06;31.04;100804.53;6183845;23;20016;-87
2023/01/08 11:20:30;;;;;;;2.65;1.75;;;;;;;17.01;31.07;100793.56;6159093;23;20004;-87
2023/01/08 11:23:16;;;;;;;2.08;1.60;;;;;;;17.02;31.13;100789.81;6184329;23;20038;-87
2023/01/08 11:25:51;;;;;;;2.22;1.70;;;;;;;16.95;31.15;100770.97;6209046;23;20011;-87
2023/01/08 11:28:27;;;;;;;2.13;1.38;;;;;;;17.09;31.20;100793.28;6209719;23;20004;-86
2023/01/08 11:30:57;;;;;;;2.78;1.73;;;;;;;17.07;31.33;100781.88;6161059;23;20062;-87